Time;durP1;ratioP1;P1;durP2;ratioP2;P2;SDS_P1;SDS_P2;PMS_P1;PMS_P2;Temp;Humidity;BMP_temperature;BMP_pressure;BME280_temperature;BME280_humidity;BME280_pressure;Samples;Min_cycle;Max_cycle;Signal;HPM_P1;HPM_P2
2022/01/03 00:00:19;;;;;;;;;;;;;;;;;;1011563;29;962;-31
2022/01/03 00:00:51;;;;;;;;;;;;;;;;;;1011756;29;800;-32
2022/01/03 00:01:22;;;;;;;;;;;;;;;;;;1011622;29;926;-32
2022/01/03 00:01:52;;;;;;;;;;;;;;;;;;1011562;29;947;-32
2022/01/03 00:02:24;;;;;;;;;;;;;;;;;;1006929;29;925;-32
2022/01/03 00:02:56;;;;;;;;;;;;;;;;;;1007690;29;857;-32
2022/01/03 00:03:28;;;;;;;;;;;;;;;;;;1010155;29;938;-32
2022/01/03 00:03:58;;;;;;;;;;;;;;;;;;1006909;29;1130;-32
2022/01/03 00:04:29;;;;;;;;;;;;;;;;;;1007508;29;983;-33
2022/01/03 00:05:00;;;;;;;;;;;;;;;;;;1007366;29;828;-31
2022/01/03 00:05:30;;;;;;;;;;;;;;;;;;1006715;29;1056;-31
2022/01/03 00:06:01;;;;;;;;;;;;;;;;;;1011742;29;804;-32
2022/01/03 00:06:32;;;;;;;;;;;;;;;;;;1006943;29;927;-32
2022/01/03 00:07:02;;;;;;;;;;;;;;;;;;1007526;29;852;-32
2022/01/03 00:07:40;;;;;;;;;;;;;;;;;;1007197;29;1104;-32
2022/01/03 00:08:10;;;;;;;;;;;;;;;;;;1007563;29;845;-32
2022/01/03 00:08:42;;;;;;;;;;;;;;;;;;1007627;29;940;-33
2022/01/03 00:09:12;;;;;;;;;;;;;;;;;;1007590;29;928;-32
2022/01/03 00:09:43;;;;;;;;;;;;;;;;;;1006771;29;1116;-31
2022/01/03 00:10:15;;;;;;;;;;;;;;;;;;1007527;29;946;-32
2022/01/03 00:10:46;;;;;;;;;;;;;;;;;;1008192;29;1016;-32
2022/01/03 00:11:17;;;;;;;;;;;;;;;;;;1007789;29;916;-33
2022/01/03 00:11:48;;;;;;;;;;;;;;;;;;1007226;29;1102;-32
2022/01/03 00:12:21;;;;;;;;;;;;;;;;;;1006960;29;1119;-33
2022/01/03 00:12:51;;;;;;;;;;;;;;;;;;1006324;29;1907;-31
2022/01/03 00:13:22;;;;;;;;;;;;;;;;;;1007484;29;892;-32
2022/01/03 00:13:53;;;;;;;;;;;;;;;;;;1008038;29;1246;-32
2022/01/03 00:14:26;;;;;;;;;;;;;;;;;;1011503;29;940;-32
2022/01/03 00:14:56;;;;;;;;;;;;;;;;;;1012155;29;984;-32
2022/01/03 00:15:27;;;;;;;;;;;;;;;;;;1007482;29;900;-32
2022/01/03 00:15:58;;;;;;;;;;;;;;;;;;1007093;29;896;-32
2022/01/03 00:16:29;;;;;;;;;;;;;;;;;;1007478;29;888;-33
2022/01/03 00:17:00;;;;;;;;;;;;;;;;;;1007546;29;885;-32
2022/01/03 00:17:30;;;;;;;;;;;;;;;;;;1007854;29;860;-32
2022/01/03 00:18:00;;;;;;;;;;;;;;;;;;1007688;29;931;-33
2022/01/03 00:18:31;;;;;;;;;;;;;;;;;;1007641;29;998;-32
2022/01/03 00:19:01;;;;;;;;;;;;;;;;;;1007864;29;841;-32
2022/01/03 00:19:32;;;;;;;;;;;;;;;;;;1007337;29;983;-32
2022/01/03 00:20:03;;;;;;;;;;;;;;;;;;1007170;29;957;-32
2022/01/03 00:20:33;;;;;;;;;;;;;;;;;;1007302;29;904;-32
2022/01/03 00:21:06;;;;;;;;;;;;;;;;;;1007356;29;874;-32
2022/01/03 00:21:44;;;;;;;;;;;;;;;;;;1007710;29;984;-32
2022/01/03 00:22:16;;;;;;;;;;;;;;;;;;1003366;29;885;-32
2022/01/03 00:22:52;;;;;;;;;;;;;;;;;;1006979;29;1280;-33
2022/01/03 00:23:27;;;;;;;;;;;;;;;;;;1007406;29;1662;-32
2022/01/03 00:24:06;;;;;;;;;;;;;;;;;;1008874;29;919;-32
2022/01/03 00:24:38;;;;;;;;;;;;;;;;;;1007222;29;963;-32
2022/01/03 00:25:15;;;;;;;;;;;;;;;;;;1007334;29;923;-32
2022/01/03 00:25:49;;;;;;;;;;;;;;;;;;1007340;29;825;-32
2022/01/03 00:26:27;;;;;;;;;;;;;;;;;;1009013;29;875;-33
2022/01/03 00:27:01;;;;;;;;;;;;;;;;;;1007314;29;1152;-32
2022/01/03 00:27:40;;;;;;;;;;;;;;;;;;1006983;29;797;-32
2022/01/03 00:28:11;;;;;;;;;;;;;;;;;;1003379;29;1063;-32
2022/01/03 00:28:50;;;;;;;;;;;;;;;;;;1005166;29;987;-32
2022/01/03 00:29:22;;;;;;;;;;;;;;;;;;1003481;29;1144;-32
2022/01/03 00:29:52;;;;;;;;;;;;;;;;;;1004803;29;1019;-32
2022/01/03 00:30:24;;;;;;;;;;;;;;;;;;1007329;29;916;-33
2022/01/03 00:30:55;;;;;;;;;;;;;;;;;;1003575;29;915;-32
2022/01/03 00:31:36;;;;;;;;;;;;;;;;;;1007394;29;678;-32
2022/01/03 00:32:08;;;;;;;;;;;;;;;;;;1007337;29;1014;-32
2022/01/03 00:32:38;;;;;;;;;;;;;;;;;;1008881;29;1026;-31
2022/01/03 00:33:09;;;;;;;;;;;;;;;;;;1011137;29;1911;-31
2022/01/03 00:33:40;;;;;;;;;;;;;;;;;;1011714;29;856;-31
2022/01/03 00:34:14;;;;;;;;;;;;;;;;;;1011347;29;924;-30
2022/01/03 00:34:46;;;;;;;;;;;;;;;;;;1011304;29;891;-31
2022/01/03 00:35:18;;;;;;;;;;;;;;;;;;1007200;29;1424;-30
2022/01/03 00:35:53;;;;;;;;;;;;;;;;;;1007025;29;947;-31
2022/01/03 00:36:27;;;;;;;;;;;;;;;;;;1007467;29;920;-31
2022/01/03 00:36:57;;;;;;;;;;;;;;;;;;1008471;29;1222;-31
2022/01/03 00:37:28;;;;;;;;;;;;;;;;;;1011758;29;963;-31
2022/01/03 00:37:59;;;;;;;;;;;;;;;;;;1011583;29;785;-31
2022/01/03 00:38:31;;;;;;;;;;;;;;;;;;1011548;29;808;-31
2022/01/03 00:39:07;;;;;;;;;;;;;;;;;;1011617;29;964;-30
2022/01/03 00:39:37;;;;;;;;;;;;;;;;;;1011054;29;1176;-31
2022/01/03 00:40:08;;;;;;;;;;;;;;;;;;1011338;29;947;-31
2022/01/03 00:40:39;;;;;;;;;;;;;;;;;;1008189;29;1205;-31
2022/01/03 00:41:09;;;;;;;;;;;;;;;;;;1009770;29;1082;-31
2022/01/03 00:41:40;;;;;;;;;;;;;;;;;;1007725;29;935;-31
2022/01/03 00:42:13;;;;;;;;;;;;;;;;;;1007540;29;947;-31
2022/01/03 00:42:44;;;;;;;;;;;;;;;;;;1007837;29;1031;-31
2022/01/03 00:43:15;;;;;;;;;;;;;;;;;;1007566;29;927;-31
2022/01/03 00:43:45;;;;;;;;;;;;;;;;;;1007720;29;955;-31
2022/01/03 00:44:16;;;;;;;;;;;;;;;;;;1007690;29;797;-31
2022/01/03 00:44:46;;;;;;;;;;;;;;;;;;1007757;29;884;-31
2022/01/03 00:45:17;;;;;;;;;;;;;;;;;;1007646;29;817;-31
2022/01/03 00:45:50;;;;;;;;;;;;;;;;;;1007677;29;995;-31
2022/01/03 00:46:22;;;;;;;;;;;;;;;;;;1007729;29;797;-31
2022/01/03 00:46:53;;;;;;;;;;;;;;;;;;1007647;29;1022;-31
2022/01/03 00:47:23;;;;;;;;;;;;;;;;;;1003433;29;895;-31
2022/01/03 00:47:54;;;;;;;;;;;;;;;;;;1003460;29;971;-31
2022/01/03 00:48:25;;;;;;;;;;;;;;;;;;1003489;29;912;-31
2022/01/03 00:48:56;;;;;;;;;;;;;;;;;;1003634;29;1274;-31
2022/01/03 00:49:26;;;;;;;;;;;;;;;;;;1007491;29;821;-31
2022/01/03 00:49:57;;;;;;;;;;;;;;;;;;1003358;29;1582;-31
2022/01/03 00:50:29;;;;;;;;;;;;;;;;;;1003589;29;816;-31
2022/01/03 00:51:02;;;;;;;;;;;;;;;;;;1003525;29;904;-31
2022/01/03 00:51:33;;;;;;;;;;;;;;;;;;1003919;29;1140;-31
2022/01/03 00:52:03;;;;;;;;;;;;;;;;;;1007324;29;788;-31
2022/01/03 00:52:35;;;;;;;;;;;;;;;;;;1003537;29;832;-31
2022/01/03 00:53:06;;;;;;;;;;;;;;;;;;1003452;29;1907;-31
2022/01/03 00:53:36;;;;;;;;;;;;;;;;;;1003526;29;935;-31
2022/01/03 00:54:07;;;;;;;;;;;;;;;;;;1003598;29;975;-31
2022/01/03 00:54:37;;;;;;;;;;;;;;;;;;1007712;29;974;-31
2022/01/03 00:55:08;;;;;;;;;;;;;;;;;;1003536;29;848;-31
2022/01/03 00:55:43;;;;;;;;;;;;;;;;;;1003388;29;789;-31
2022/01/03 00:56:14;;;;;;;;;;;;;;;;;;1007152;29;1729;-31
2022/01/03 00:56:47;;;;;;;;;;;;;;;;;;1003485;29;1154;-31
2022/01/03 00:57:24;;;;;;;;;;;;;;;;;;1003401;29;983;-31
2022/01/03 00:58:06;;;;;;;;;;;;;;;;;;1003435;29;1148;-31
2022/01/03 00:58:44;;;;;;;;;;;;;;;;;;999500;29;1121;-31
2022/01/03 00:59:15;;;;;;;;;;;;;;;;;;995842;29;1241;-31
2022/01/03 00:59:50;;;;;;;;;;;;;;;;;;998639;29;829;-31
2022/01/03 01:00:20;;;;;;;;;;;;;;;;;;1001171;29;880;-32
2022/01/03 01:00:54;;;;;;;;;;;;;;;;;;1003568;29;932;-31
2022/01/03 01:01:25;;;;;;;;;;;;;;;;;;1003456;29;1214;-31
2022/01/03 01:01:58;;;;;;;;;;;;;;;;;;1000131;29;1148;-32
2022/01/03 01:02:29;;;;;;;;;;;;;;;;;;1003399;29;887;-31
2022/01/03 01:03:00;;;;;;;;;;;;;;;;;;1003566;29;773;-31
2022/01/03 01:03:35;;;;;;;;;;;;;;;;;;1000146;29;1243;-31
2022/01/03 01:04:07;;;;;;;;;;;;;;;;;;999623;29;904;-31
2022/01/03 01:04:38;;;;;;;;;;;;;;;;;;999642;29;805;-31
2022/01/03 01:05:08;;;;;;;;;;;;;;;;;;1000496;29;826;-31
2022/01/03 01:05:39;;;;;;;;;;;;;;;;;;1003769;29;833;-31
2022/01/03 01:06:10;;;;;;;;;;;;;;;;;;1007693;29;936;-31
2022/01/03 01:06:40;;;;;;;;;;;;;;;;;;1007155;29;947;-31
2022/01/03 01:07:11;;;;;;;;;;;;;;;;;;1007208;29;1105;-31
2022/01/03 01:07:44;;;;;;;;;;;;;;;;;;1003340;29;1196;-31
2022/01/03 01:08:18;;;;;;;;;;;;;;;;;;1006821;29;1131;-31
2022/01/03 01:08:54;;;;;;;;;;;;;;;;;;1003951;29;829;-31
2022/01/03 01:09:26;;;;;;;;;;;;;;;;;;1004261;29;956;-31
2022/01/03 01:09:59;;;;;;;;;;;;;;;;;;1005696;29;1391;-31
2022/01/03 01:10:31;;;;;;;;;;;;;;;;;;1004284;29;1010;-31
2022/01/03 01:11:03;;;;;;;;;;;;;;;;;;1004341;29;861;-31
2022/01/03 01:11:34;;;;;;;;;;;;;;;;;;1004238;29;888;-31
2022/01/03 01:12:05;;;;;;;;;;;;;;;;;;1004132;29;1588;-31
2022/01/03 01:12:43;;;;;;;;;;;;;;;;;;1004233;29;1266;-31
2022/01/03 01:13:14;;;;;;;;;;;;;;;;;;1004152;29;831;-31
2022/01/03 01:13:46;;;;;;;;;;;;;;;;;;1004214;29;1204;-31
2022/01/03 01:14:16;;;;;;;;;;;;;;;;;;1014347;29;1093;-32
2022/01/03 01:14:50;;;;;;;;;;;;;;;;;;1015726;29;1328;-31
2022/01/03 01:15:22;;;;;;;;;;;;;;;;;;1011294;29;1187;-31
2022/01/03 01:15:52;;;;;;;;;;;;;;;;;;1007186;29;1132;-31
2022/01/03 01:16:23;;;;;;;;;;;;;;;;;;1004870;29;928;-31
2022/01/03 01:16:55;;;;;;;;;;;;;;;;;;1004553;29;1184;-31
2022/01/03 01:17:26;;;;;;;;;;;;;;;;;;1008363;29;1201;-31
2022/01/03 01:17:56;;;;;;;;;;;;;;;;;;1008110;29;1207;-31
2022/01/03 01:18:31;;;;;;;;;;;;;;;;;;1008162;29;801;-31
2022/01/03 01:19:03;;;;;;;;;;;;;;;;;;1008122;29;1309;-31
2022/01/03 01:19:35;;;;;;;;;;;;;;;;;;1005106;29;1332;-31
2022/01/03 01:20:06;;;;;;;;;;;;;;;;;;1008060;29;798;-31
2022/01/03 01:20:39;;;;;;;;;;;;;;;;;;1008825;29;790;-31
2022/01/03 01:21:10;;;;;;;;;;;;;;;;;;1008492;29;1163;-31
2022/01/03 01:21:41;;;;;;;;;;;;;;;;;;1012153;29;970;-33
2022/01/03 01:22:12;;;;;;;;;;;;;;;;;;1007979;29;1372;-31
2022/01/03 01:22:43;;;;;;;;;;;;;;;;;;1005227;29;1467;-31
2022/01/03 01:23:14;;;;;;;;;;;;;;;;;;1008010;29;880;-31
2022/01/03 01:23:45;;;;;;;;;;;;;;;;;;1008115;29;844;-31
2022/01/03 01:24:17;;;;;;;;;;;;;;;;;;1004046;29;1269;-31
2022/01/03 01:24:59;;;;;;;;;;;;;;;;;;1000495;29;911;-31
2022/01/03 01:27:49;;;;;;;;;;;;;;;;;;1004965;29;1569;-31
2022/01/03 01:28:21;;;;;;;;;;;;;;;;;;1007954;29;917;-32
2022/01/03 01:28:52;;;;;;;;;;;;;;;;;;1004210;29;1136;-31
2022/01/03 01:29:22;;;;;;;;;;;;;;;;;;1004158;29;789;-31
2022/01/03 01:29:52;;;;;;;;;;;;;;;;;;1004250;29;849;-31
2022/01/03 01:30:26;;;;;;;;;;;;;;;;;;1000308;29;1464;-31
2022/01/03 01:30:59;;;;;;;;;;;;;;;;;;1000386;29;1516;-31
2022/01/03 01:31:32;;;;;;;;;;;;;;;;;;1000368;29;884;-31
2022/01/03 01:32:03;;;;;;;;;;;;;;;;;;1002576;29;1146;-31
2022/01/03 01:32:35;;;;;;;;;;;;;;;;;;1004118;29;1166;-31
2022/01/03 01:33:07;;;;;;;;;;;;;;;;;;1000361;29;1978;-31
2022/01/03 01:33:39;;;;;;;;;;;;;;;;;;996893;29;1162;-31
2022/01/03 01:34:13;;;;;;;;;;;;;;;;;;997152;29;1499;-31
2022/01/03 01:34:44;;;;;;;;;;;;;;;;;;1001212;29;932;-31
2022/01/03 01:35:16;;;;;;;;;;;;;;;;;;1001036;29;1243;-31
2022/01/03 01:35:50;;;;;;;;;;;;;;;;;;1004734;29;1284;-31
2022/01/03 01:36:26;;;;;;;;;;;;;;;;;;1004114;29;1187;-31
2022/01/03 01:36:58;;;;;;;;;;;;;;;;;;1005577;29;1377;-31
2022/01/03 01:37:30;;;;;;;;;;;;;;;;;;1003923;29;1176;-31
2022/01/03 01:38:01;;;;;;;;;;;;;;;;;;1004217;29;1568;-31
2022/01/03 01:38:33;;;;;;;;;;;;;;;;;;1004146;29;809;-31
2022/01/03 01:39:07;;;;;;;;;;;;;;;;;;1000638;29;1388;-31
2022/01/03 01:39:41;;;;;;;;;;;;;;;;;;1001594;29;1171;-31
2022/01/03 01:40:12;;;;;;;;;;;;;;;;;;1003958;29;983;-31
2022/01/03 01:40:51;;;;;;;;;;;;;;;;;;1005448;29;1462;-31
2022/01/03 01:41:22;;;;;;;;;;;;;;;;;;1007929;29;1203;-31
2022/01/03 01:41:58;;;;;;;;;;;;;;;;;;1004045;29;1286;-31
2022/01/03 01:42:29;;;;;;;;;;;;;;;;;;1002067;29;1282;-31
2022/01/03 01:43:01;;;;;;;;;;;;;;;;;;1004220;29;1019;-31
2022/01/03 01:43:40;;;;;;;;;;;;;;;;;;1000749;29;1662;-31
2022/01/03 01:44:13;;;;;;;;;;;;;;;;;;1001710;29;1159;-31
2022/01/03 01:44:47;;;;;;;;;;;;;;;;;;1004239;29;2158;-31
2022/01/03 01:45:20;;;;;;;;;;;;;;;;;;1002134;29;1290;-31
2022/01/03 01:45:51;;;;;;;;;;;;;;;;;;1004009;29;963;-31
2022/01/03 01:46:24;;;;;;;;;;;;;;;;;;1004057;29;846;-31
2022/01/03 01:47:02;;;;;;;;;;;;;;;;;;1001577;29;1481;-31
2022/01/03 01:47:36;;;;;;;;;;;;;;;;;;1001501;29;1220;-31
2022/01/03 01:48:09;;;;;;;;;;;;;;;;;;1004165;29;1183;-31
2022/01/03 01:48:40;;;;;;;;;;;;;;;;;;1005239;29;876;-31
2022/01/03 01:49:15;;;;;;;;;;;;;;;;;;1009182;29;1146;-31
2022/01/03 01:49:46;;;;;;;;;;;;;;;;;;1011970;29;829;-31
2022/01/03 01:50:19;;;;;;;;;;;;;;;;;;1011732;29;1175;-31
2022/01/03 01:50:51;;;;;;;;;;;;;;;;;;1007927;29;1150;-31
2022/01/03 01:51:23;;;;;;;;;;;;;;;;;;1004051;29;853;-31
2022/01/03 01:51:57;;;;;;;;;;;;;;;;;;1004153;29;1534;-31
2022/01/03 01:52:27;;;;;;;;;;;;;;;;;;1004102;29;920;-31
2022/01/03 01:53:04;;;;;;;;;;;;;;;;;;1001715;29;1988;-31
2022/01/03 01:53:39;;;;;;;;;;;;;;;;;;1005226;29;777;-31
2022/01/03 01:54:12;;;;;;;;;;;;;;;;;;1004087;29;865;-31
2022/01/03 01:54:49;;;;;;;;;;;;;;;;;;1005094;29;1179;-31
2022/01/03 01:55:19;;;;;;;;;;;;;;;;;;1008006;29;954;-31
2022/01/03 01:55:54;;;;;;;;;;;;;;;;;;1005585;29;967;-31
2022/01/03 01:56:27;;;;;;;;;;;;;;;;;;1004145;29;1315;-31
2022/01/03 01:57:03;;;;;;;;;;;;;;;;;;1000146;29;1173;-31
2022/01/03 01:57:39;;;;;;;;;;;;;;;;;;1001718;29;1366;-31
2022/01/03 01:58:18;;;;;;;;;;;;;;;;;;1001967;29;1192;-31
2022/01/03 01:59:08;;;;;;;;;;;;;;;;;;1006946;29;1349;-31
2022/01/03 01:59:42;;;;;;;;;;;;;;;;;;1004193;29;1164;-31
2022/01/03 02:00:15;;;;;;;;;;;;;;;;;;1004117;29;1202;-31
2022/01/03 02:00:55;;;;;;;;;;;;;;;;;;1004023;29;1160;-31
2022/01/03 02:01:41;;;;;;;;;;;;;;;;;;1003034;29;1304;-31
2022/01/03 02:02:15;;;;;;;;;;;;;;;;;;1003684;29;1284;-31
2022/01/03 02:03:09;;;;;;;;;;;;;;;;;;1000191;29;1177;-31
2022/01/03 02:03:47;;;;;;;;;;;;;;;;;;1000220;29;1352;-31
2022/01/03 02:04:30;;;;;;;;;;;;;;;;;;1004142;29;1278;-31
2022/01/03 02:05:03;;;;;;;;;;;;;;;;;;1007906;29;1257;-31
2022/01/03 02:05:38;;;;;;;;;;;;;;;;;;1003865;29;1163;-31
2022/01/03 02:06:16;;;;;;;;;;;;;;;;;;1004222;29;786;-31
2022/01/03 02:06:47;;;;;;;;;;;;;;;;;;1005711;29;864;-31
2022/01/03 02:07:24;;;;;;;;;;;;;;;;;;1007851;29;1179;-31
2022/01/03 02:07:57;;;;;;;;;;;;;;;;;;1007756;29;1185;-31
2022/01/03 02:08:33;;;;;;;;;;;;;;;;;;1003934;29;1260;-31
2022/01/03 02:09:03;;;;;;;;;;;;;;;;;;1003960;29;1294;-31
2022/01/03 02:09:40;;;;;;;;;;;;;;;;;;1003948;29;1414;-31
2022/01/03 02:10:12;;;;;;;;;;;;;;;;;;1005626;29;884;-31
2022/01/03 02:10:55;;;;;;;;;;;;;;;;;;1003974;29;1192;-31
2022/01/03 02:11:44;;;;;;;;;;;;;;;;;;1002808;29;1220;-31
2022/01/03 02:12:16;;;;;;;;;;;;;;;;;;1004063;29;1351;-31
2022/01/03 02:12:48;;;;;;;;;;;;;;;;;;1003834;29;1978;-31
2022/01/03 02:13:23;;;;;;;;;;;;;;;;;;1004005;29;1235;-31
2022/01/03 02:13:56;;;;;;;;;;;;;;;;;;1005120;29;1399;-31
2022/01/03 02:14:27;;;;;;;;;;;;;;;;;;1009008;29;809;-31
2022/01/03 02:15:00;;;;;;;;;;;;;;;;;;1007848;29;1537;-31
2022/01/03 02:15:32;;;;;;;;;;;;;;;;;;1004577;29;1240;-31
2022/01/03 02:16:03;;;;;;;;;;;;;;;;;;1003955;29;1630;-31
2022/01/03 02:16:38;;;;;;;;;;;;;;;;;;1000800;29;1279;-31
2022/01/03 02:17:09;;;;;;;;;;;;;;;;;;1001015;29;1271;-32
2022/01/03 02:17:44;;;;;;;;;;;;;;;;;;1000980;29;1291;-30
2022/01/03 02:18:14;;;;;;;;;;;;;;;;;;1001189;29;1298;-31
2022/01/03 02:18:45;;;;;;;;;;;;;;;;;;1004620;29;924;-31
2022/01/03 02:19:21;;;;;;;;;;;;;;;;;;1004872;29;1163;-31
2022/01/03 02:20:03;;;;;;;;;;;;;;;;;;1004815;29;2316;-31
2022/01/03 02:20:35;;;;;;;;;;;;;;;;;;1007852;29;1148;-31
2022/01/03 02:21:10;;;;;;;;;;;;;;;;;;1006634;29;1315;-31
2022/01/03 02:21:41;;;;;;;;;;;;;;;;;;1007815;29;1208;-31
2022/01/03 02:22:14;;;;;;;;;;;;;;;;;;1007898;29;1191;-31
2022/01/03 02:22:57;;;;;;;;;;;;;;;;;;1005170;29;1311;-31
2022/01/03 02:23:33;;;;;;;;;;;;;;;;;;1000091;29;1388;-31
2022/01/03 02:24:04;;;;;;;;;;;;;;;;;;998606;29;1421;-31
2022/01/03 02:24:34;;;;;;;;;;;;;;;;;;1001123;29;940;-31
2022/01/03 02:25:06;;;;;;;;;;;;;;;;;;1004250;29;955;-31
2022/01/03 02:25:36;;;;;;;;;;;;;;;;;;1007993;29;818;-31
2022/01/03 02:26:06;;;;;;;;;;;;;;;;;;1007572;29;1284;-31
2022/01/03 02:26:37;;;;;;;;;;;;;;;;;;1007985;29;805;-31
2022/01/03 02:27:08;;;;;;;;;;;;;;;;;;1007764;29;915;-31
2022/01/03 02:27:39;;;;;;;;;;;;;;;;;;1008070;29;820;-31
2022/01/03 02:28:10;;;;;;;;;;;;;;;;;;1007707;29;1601;-31
2022/01/03 02:28:41;;;;;;;;;;;;;;;;;;1007853;29;892;-32
2022/01/03 02:29:12;;;;;;;;;;;;;;;;;;1007917;29;1443;-31
2022/01/03 02:29:43;;;;;;;;;;;;;;;;;;1004084;29;947;-31
2022/01/03 02:30:16;;;;;;;;;;;;;;;;;;1007898;29;950;-31
2022/01/03 02:30:46;;;;;;;;;;;;;;;;;;1003873;29;1156;-31
2022/01/03 02:31:17;;;;;;;;;;;;;;;;;;1004331;29;979;-31
2022/01/03 02:31:48;;;;;;;;;;;;;;;;;;1003955;29;1274;-31
2022/01/03 02:32:19;;;;;;;;;;;;;;;;;;1000371;29;1024;-31
2022/01/03 02:32:50;;;;;;;;;;;;;;;;;;999916;29;2005;-31
2022/01/03 02:33:20;;;;;;;;;;;;;;;;;;1000402;29;1308;-31
2022/01/03 02:33:51;;;;;;;;;;;;;;;;;;1003748;29;1172;-31
2022/01/03 02:34:23;;;;;;;;;;;;;;;;;;1004247;29;1161;-31
2022/01/03 02:34:54;;;;;;;;;;;;;;;;;;1007821;29;1367;-31
2022/01/03 02:35:35;;;;;;;;;;;;;;;;;;1006462;29;1352;-31
2022/01/03 02:36:05;;;;;;;;;;;;;;;;;;1005581;29;944;-31
2022/01/03 02:36:36;;;;;;;;;;;;;;;;;;1007606;29;2069;-31
2022/01/03 02:37:08;;;;;;;;;;;;;;;;;;1004647;29;853;-31
2022/01/03 02:37:38;;;;;;;;;;;;;;;;;;1004020;29;1139;-31
2022/01/03 02:38:09;;;;;;;;;;;;;;;;;;1003733;29;1351;-31
2022/01/03 02:38:40;;;;;;;;;;;;;;;;;;1004225;29;959;-31
2022/01/03 02:39:10;;;;;;;;;;;;;;;;;;1007670;29;836;-31
2022/01/03 02:39:40;;;;;;;;;;;;;;;;;;1008003;29;777;-31
2022/01/03 02:40:11;;;;;;;;;;;;;;;;;;1012038;29;864;-31
2022/01/03 02:40:43;;;;;;;;;;;;;;;;;;1007762;29;1188;-31
2022/01/03 02:41:13;;;;;;;;;;;;;;;;;;1007736;29;839;-31
2022/01/03 02:41:45;;;;;;;;;;;;;;;;;;1007722;29;1275;-31
2022/01/03 02:42:15;;;;;;;;;;;;;;;;;;1004125;29;1003;-31
2022/01/03 02:42:46;;;;;;;;;;;;;;;;;;1007769;29;1167;-32
2022/01/03 02:43:16;;;;;;;;;;;;;;;;;;1007664;29;932;-31
2022/01/03 02:43:49;;;;;;;;;;;;;;;;;;1007828;29;864;-31
2022/01/03 02:44:20;;;;;;;;;;;;;;;;;;1004363;29;1265;-31
2022/01/03 02:45:07;;;;;;;;;;;;;;;;;;1003742;29;1148;-31
2022/01/03 02:45:37;;;;;;;;;;;;;;;;;;1003866;29;786;-31
2022/01/03 02:46:09;;;;;;;;;;;;;;;;;;1005985;29;808;-31
2022/01/03 02:46:40;;;;;;;;;;;;;;;;;;1010432;29;959;-31
2022/01/03 02:47:11;;;;;;;;;;;;;;;;;;1007615;29;1151;-31
2022/01/03 02:47:44;;;;;;;;;;;;;;;;;;1003929;29;1277;-31
2022/01/03 02:48:20;;;;;;;;;;;;;;;;;;1003855;29;2163;-31
2022/01/03 02:48:51;;;;;;;;;;;;;;;;;;1005017;29;1187;-31
2022/01/03 02:49:22;;;;;;;;;;;;;;;;;;1007690;29;939;-31
2022/01/03 02:49:52;;;;;;;;;;;;;;;;;;1007654;29;1150;-31
2022/01/03 02:50:24;;;;;;;;;;;;;;;;;;1007680;29;1168;-31
2022/01/03 02:50:54;;;;;;;;;;;;;;;;;;1003930;29;1426;-31
2022/01/03 02:51:25;;;;;;;;;;;;;;;;;;999896;29;1180;-31
2022/01/03 02:51:56;;;;;;;;;;;;;;;;;;1000471;29;770;-31
2022/01/03 02:52:26;;;;;;;;;;;;;;;;;;1003953;29;912;-31
2022/01/03 02:52:57;;;;;;;;;;;;;;;;;;1003873;29;1978;-31
2022/01/03 02:53:28;;;;;;;;;;;;;;;;;;1003806;29;1468;-31
2022/01/03 02:53:59;;;;;;;;;;;;;;;;;;1003789;29;1769;-31
2022/01/03 02:54:29;;;;;;;;;;;;;;;;;;1003929;29;995;-31
2022/01/03 02:55:00;;;;;;;;;;;;;;;;;;1004033;29;1724;-31
2022/01/03 02:55:31;;;;;;;;;;;;;;;;;;1003804;29;1325;-31
2022/01/03 02:56:01;;;;;;;;;;;;;;;;;;1003854;29;1283;-31
2022/01/03 02:56:33;;;;;;;;;;;;;;;;;;1000082;29;1192;-31
2022/01/03 02:57:04;;;;;;;;;;;;;;;;;;1004058;29;848;-31
2022/01/03 02:57:38;;;;;;;;;;;;;;;;;;1007843;29;982;-31
2022/01/03 02:58:09;;;;;;;;;;;;;;;;;;1006690;29;1408;-31
2022/01/03 02:58:43;;;;;;;;;;;;;;;;;;1001173;29;1283;-31
2022/01/03 02:59:15;;;;;;;;;;;;;;;;;;999957;29;1386;-31
2022/01/03 02:59:46;;;;;;;;;;;;;;;;;;999994;29;1164;-31
2022/01/03 03:00:24;;;;;;;;;;;;;;;;;;1000328;29;936;-31
2022/01/03 03:00:54;;;;;;;;;;;;;;;;;;1001095;29;1255;-32
2022/01/03 03:01:31;;;;;;;;;;;;;;;;;;1005938;29;1214;-31
2022/01/03 03:02:02;;;;;;;;;;;;;;;;;;1003669;29;1449;-31
2022/01/03 03:02:33;;;;;;;;;;;;;;;;;;1004914;29;1203;-31
2022/01/03 03:03:04;;;;;;;;;;;;;;;;;;1007694;29;911;-31
2022/01/03 03:03:34;;;;;;;;;;;;;;;;;;1003848;29;1447;-31
2022/01/03 03:04:05;;;;;;;;;;;;;;;;;;1000094;29;904;-31
2022/01/03 03:04:51;;;;;;;;;;;;;;;;;;1000043;29;892;-31
2022/01/03 03:05:22;;;;;;;;;;;;;;;;;;1002125;29;797;-31
2022/01/03 03:05:53;;;;;;;;;;;;;;;;;;1005827;29;892;-31
2022/01/03 03:06:26;;;;;;;;;;;;;;;;;;1007580;29;1377;-31
2022/01/03 03:06:57;;;;;;;;;;;;;;;;;;1007820;29;949;-31
2022/01/03 03:07:28;;;;;;;;;;;;;;;;;;1007583;29;861;-31
2022/01/03 03:07:59;;;;;;;;;;;;;;;;;;1004090;29;1283;-30
2022/01/03 03:08:30;;;;;;;;;;;;;;;;;;1003807;29;1606;-31
2022/01/03 03:09:04;;;;;;;;;;;;;;;;;;1003825;29;871;-31
2022/01/03 03:09:35;;;;;;;;;;;;;;;;;;1000825;29;1430;-31
2022/01/03 03:10:06;;;;;;;;;;;;;;;;;;1004428;29;944;-31
2022/01/03 03:10:38;;;;;;;;;;;;;;;;;;1007634;29;1153;-31
2022/01/03 03:11:08;;;;;;;;;;;;;;;;;;1003796;29;1307;-32
2022/01/03 03:11:39;;;;;;;;;;;;;;;;;;999999;29;1299;-31
2022/01/03 03:12:10;;;;;;;;;;;;;;;;;;999935;29;1209;-31
2022/01/03 03:12:41;;;;;;;;;;;;;;;;;;1003999;29;1401;-31
2022/01/03 03:13:11;;;;;;;;;;;;;;;;;;1007640;29;1907;-31
2022/01/03 03:13:42;;;;;;;;;;;;;;;;;;1003910;29;1135;-31
2022/01/03 03:14:12;;;;;;;;;;;;;;;;;;1006550;29;1236;-31
2022/01/03 03:14:43;;;;;;;;;;;;;;;;;;1007603;29;1227;-31
2022/01/03 03:15:14;;;;;;;;;;;;;;;;;;1003856;29;1216;-31
2022/01/03 03:15:44;;;;;;;;;;;;;;;;;;999822;29;1362;-31
2022/01/03 03:16:15;;;;;;;;;;;;;;;;;;1000049;29;904;-31
2022/01/03 03:16:46;;;;;;;;;;;;;;;;;;1000010;29;1141;-31
2022/01/03 03:17:19;;;;;;;;;;;;;;;;;;1003950;29;1330;-31
2022/01/03 03:17:50;;;;;;;;;;;;;;;;;;1003723;29;1309;-31
2022/01/03 03:18:21;;;;;;;;;;;;;;;;;;1003750;29;817;-31
2022/01/03 03:18:52;;;;;;;;;;;;;;;;;;1004395;29;1475;-31
2022/01/03 03:19:22;;;;;;;;;;;;;;;;;;1007630;29;1167;-31
2022/01/03 03:19:56;;;;;;;;;;;;;;;;;;1007674;29;1206;-31
2022/01/03 03:20:28;;;;;;;;;;;;;;;;;;1003223;29;1266;-31
2022/01/03 03:20:58;;;;;;;;;;;;;;;;;;999956;29;928;-31
2022/01/03 03:21:30;;;;;;;;;;;;;;;;;;1001205;29;829;-31
2022/01/03 03:22:00;;;;;;;;;;;;;;;;;;1004128;29;1133;-31
2022/01/03 03:22:31;;;;;;;;;;;;;;;;;;1007598;29;931;-31
2022/01/03 03:23:03;;;;;;;;;;;;;;;;;;1003671;29;1479;-31
2022/01/03 03:23:35;;;;;;;;;;;;;;;;;;1000404;29;1306;-31
2022/01/03 03:24:06;;;;;;;;;;;;;;;;;;1003733;29;912;-31
2022/01/03 03:24:36;;;;;;;;;;;;;;;;;;1004146;29;777;-31
2022/01/03 03:25:12;;;;;;;;;;;;;;;;;;1003557;29;1479;-31
2022/01/03 03:25:43;;;;;;;;;;;;;;;;;;1004513;29;1211;-31
2022/01/03 03:26:16;;;;;;;;;;;;;;;;;;1007458;29;1239;-32
2022/01/03 03:26:46;;;;;;;;;;;;;;;;;;1003820;29;1275;-31
2022/01/03 03:27:17;;;;;;;;;;;;;;;;;;1003586;29;1268;-31
2022/01/03 03:27:49;;;;;;;;;;;;;;;;;;1003756;29;1188;-32
2022/01/03 03:28:26;;;;;;;;;;;;;;;;;;999783;29;1213;-31
2022/01/03 03:29:01;;;;;;;;;;;;;;;;;;1001605;29;1150;-31
2022/01/03 03:29:33;;;;;;;;;;;;;;;;;;999957;29;1351;-31
2022/01/03 03:30:04;;;;;;;;;;;;;;;;;;1000756;29;804;-31
2022/01/03 03:30:37;;;;;;;;;;;;;;;;;;1004280;29;1185;-31
2022/01/03 03:31:08;;;;;;;;;;;;;;;;;;1004217;29;1153;-31
2022/01/03 03:31:41;;;;;;;;;;;;;;;;;;1003291;29;1488;-31
2022/01/03 03:32:13;;;;;;;;;;;;;;;;;;999944;29;1280;-31
2022/01/03 03:32:44;;;;;;;;;;;;;;;;;;1000430;29;1275;-31
2022/01/03 03:33:16;;;;;;;;;;;;;;;;;;1003444;29;1912;-31
2022/01/03 03:33:50;;;;;;;;;;;;;;;;;;1004553;29;1483;-31
2022/01/03 03:34:22;;;;;;;;;;;;;;;;;;1003631;29;1183;-31
2022/01/03 03:34:53;;;;;;;;;;;;;;;;;;1003835;29;1337;-31
2022/01/03 03:35:23;;;;;;;;;;;;;;;;;;999807;29;1145;-31
2022/01/03 03:35:54;;;;;;;;;;;;;;;;;;999835;29;1152;-31
2022/01/03 03:36:27;;;;;;;;;;;;;;;;;;1000375;29;1201;-31
2022/01/03 03:36:58;;;;;;;;;;;;;;;;;;1004157;29;1266;-31
2022/01/03 03:37:28;;;;;;;;;;;;;;;;;;1007577;29;900;-31
2022/01/03 03:37:58;;;;;;;;;;;;;;;;;;1003749;29;936;-31
2022/01/03 03:38:29;;;;;;;;;;;;;;;;;;1007439;29;1266;-31
2022/01/03 03:39:00;;;;;;;;;;;;;;;;;;1007736;29;871;-31
2022/01/03 03:39:33;;;;;;;;;;;;;;;;;;1007416;29;916;-31
2022/01/03 03:40:05;;;;;;;;;;;;;;;;;;1004328;29;1183;-31
2022/01/03 03:40:35;;;;;;;;;;;;;;;;;;1003736;29;1168;-31
2022/01/03 03:41:05;;;;;;;;;;;;;;;;;;1003780;29;789;-31
2022/01/03 03:41:41;;;;;;;;;;;;;;;;;;1004564;29;1262;-31
2022/01/03 03:42:11;;;;;;;;;;;;;;;;;;1003493;29;1129;-31
2022/01/03 03:42:43;;;;;;;;;;;;;;;;;;1003707;29;1202;-31
2022/01/03 03:43:14;;;;;;;;;;;;;;;;;;1003758;29;892;-31
2022/01/03 03:43:44;;;;;;;;;;;;;;;;;;1003910;29;1174;-31
2022/01/03 03:44:15;;;;;;;;;;;;;;;;;;1007240;29;1329;-31
2022/01/03 03:44:45;;;;;;;;;;;;;;;;;;1003723;29;850;-31
2022/01/03 03:45:16;;;;;;;;;;;;;;;;;;1000074;29;1292;-31
2022/01/03 03:45:50;;;;;;;;;;;;;;;;;;1003591;29;1310;-31
2022/01/03 03:46:23;;;;;;;;;;;;;;;;;;999665;29;1403;-31
2022/01/03 03:46:53;;;;;;;;;;;;;;;;;;1000750;29;725;-31
2022/01/03 03:47:23;;;;;;;;;;;;;;;;;;1003513;29;1332;-31
2022/01/03 03:47:57;;;;;;;;;;;;;;;;;;1004002;29;1034;-31
2022/01/03 03:48:27;;;;;;;;;;;;;;;;;;1007448;29;804;-31
2022/01/03 03:48:58;;;;;;;;;;;;;;;;;;1008079;29;865;-31
2022/01/03 03:49:28;;;;;;;;;;;;;;;;;;1007464;29;1199;-31